Pl Grove, Alabama
Current Conditions -  °F | °C
As of 4:53 PM on Tuesday 25 Nov 2014 (Local Time) from KBHM Reporting Station
Overcast Overcast  
Wind Chill: 54°   Ceiling: 11000
Heat Index: 54°   Visibility: 10mi
Dew Point: 29°   Wind: 7mph
Humidity: 38%   Direction: 310°NW
Pressure: 30.1"   Gusts: NA
Location:  33.4901°N, 86.9786°W
Report Text: KBHM 252253Z 31006KT 10SM OVC110 12/M02 A3010 RMK AO2 SLP192 T01221017
Loading
Personal Weather Stations






























Interactive Weather Map New forecast layout! Learn more

10-Day Weather Forecast

Advertisements
Track Severe Weather on mobile